Time;durP1;ratioP1;P1;durP2;ratioP2;P2;SDS_P1;SDS_P2;PMS_P1;PMS_P2;Temp;Humidity;BMP_temperature;BMP_pressure;BME280_temperature;BME280_humidity;BME280_pressure;Samples;Min_cycle;Max_cycle;Signal;HPM_P1;HPM_P2
2022/06/16 00:01:43;;;;;;;1.77;1.25;;;;;;;15.40;62.77;98959.94;4994711;28;20462;-72
2022/06/16 00:04:10;;;;;;;3.58;1.27;;;;;;;15.35;63.15;98956.59;4995036;28;20061;-73
2022/06/16 00:06:37;;;;;;;2.00;1.30;;;;;;;15.34;63.25;98961.38;4994955;28;20050;-73
2022/06/16 00:09:04;;;;;;;82.03;26.05;;;;;;;15.29;63.04;98953.31;4995004;28;20054;-73
2022/06/16 00:11:31;;;;;;;8.98;2.50;;;;;;;15.27;63.47;98952.88;4994792;28;20046;-73
2022/06/16 00:13:58;;;;;;;3.42;1.73;;;;;;;15.22;63.66;98952.41;4994907;28;20105;-72
2022/06/16 00:16:25;;;;;;;3.08;1.50;;;;;;;15.15;63.44;98953.09;4994808;28;20132;-70
2022/06/16 00:18:52;;;;;;;2.50;1.15;;;;;;;15.24;63.33;98962.03;4994993;28;20050;-68
2022/06/16 00:21:19;;;;;;;7.32;1.60;;;;;;;15.27;63.55;98961.28;4994656;28;20480;-73
2022/06/16 00:23:46;;;;;;;2.40;1.38;;;;;;;15.30;63.30;98965.31;4994664;28;20509;-72
2022/06/16 00:26:17;;;;;;;6.57;1.33;;;;;;;15.39;63.15;98963.09;4994552;28;20057;-72
2022/06/16 00:28:46;;;;;;;3.20;1.45;;;;;;;15.41;63.41;98960.72;4994859;28;20081;-72
2022/06/16 00:31:16;;;;;;;7.03;1.17;;;;;;;15.40;63.18;98959.13;4994259;28;20056;-72
2022/06/16 00:33:44;;;;;;;1.83;1.10;;;;;;;15.39;62.92;98952.69;4994216;28;20054;-72
2022/06/16 00:36:11;;;;;;;6.15;1.80;;;;;;;15.43;63.00;98959.19;4994446;28;20050;-68
2022/06/16 00:38:39;;;;;;;3.28;1.40;;;;;;;15.52;62.90;98956.91;4994177;28;20058;-69
2022/06/16 00:41:08;;;;;;;5.85;1.40;;;;;;;15.61;62.48;98960.22;4993867;28;20058;-68
2022/06/16 00:43:35;;;;;;;2.60;1.35;;;;;;;15.58;62.67;98966.59;4993332;28;20090;-66
2022/06/16 00:46:09;;;;;;;5.25;2.22;;;;;;;15.55;62.48;98961.75;4994882;28;20465;-68
2022/06/16 00:48:42;;;;;;;4.38;1.48;;;;;;;15.52;62.60;98951.28;4994240;28;20133;-67
2022/06/16 00:51:11;;;;;;;1.83;1.00;;;;;;;15.45;62.50;98950.38;4993897;28;20146;-67
2022/06/16 00:53:40;;;;;;;2.33;1.30;;;;;;;15.40;62.52;98959.94;4993913;28;20537;-68
2022/06/16 00:56:10;;;;;;;5.15;1.10;;;;;;;15.35;62.92;98963.03;4994074;28;20050;-67
2022/06/16 00:58:40;;;;;;;;;;;;;;;15.19;63.08;98958.78;4995244;28;20125;-67
2022/06/16 01:01:09;;;;;;;3.20;1.40;;;;;;;15.18;63.06;98959.94;4993929;28;19933;-68
2022/06/16 01:06:28;;;;;;;1.77;1.17;;;;;;;15.14;63.05;98959.91;4993849;28;20507;-68
2022/06/16 01:09:03;;;;;;;2.60;1.15;;;;;;;15.14;62.73;98957.09;4993783;28;20402;-67
2022/06/16 01:14:49;;;;;;;3.22;1.42;;;;;;;15.15;62.45;98963.50;4993808;28;20046;-67
2022/06/16 01:17:40;;;;;;;2.08;1.10;;;;;;;15.17;62.08;98964.75;4993726;28;20145;-68
2022/06/16 01:20:37;;;;;;;2.47;1.30;;;;;;;15.21;62.03;98965.59;4981451;28;20069;-73
2022/06/16 01:23:32;;;;;;;3.38;1.42;;;;;;;15.20;62.25;98969.59;4993636;28;20046;-73
2022/06/16 01:26:41;;;;;;;6.25;1.35;;;;;;;15.15;62.27;98972.72;4993475;28;20073;-73
2022/06/16 01:29:27;;;;;;;3.28;1.52;;;;;;;15.18;62.43;98973.94;4993669;28;20081;-72
2022/06/16 01:32:20;;;;;;;3.08;1.60;;;;;;;15.15;62.46;98971.91;4993378;28;20077;-73
2022/06/16 01:35:16;;;;;;;4.43;1.30;;;;;;;15.10;62.19;98978.63;4993335;28;20129;-72
2022/06/16 01:37:52;;;;;;;1.73;1.20;;;;;;;15.06;62.35;98977.78;4992943;28;20057;-70
2022/06/16 01:40:28;;;;;;;2.55;1.23;;;;;;;15.09;62.79;98977.03;4993501;28;20058;-70
2022/06/16 01:43:11;;;;;;;3.38;1.25;;;;;;;15.19;62.18;98987.56;4993000;28;20085;-70
2022/06/16 01:46:11;;;;;;;2.45;1.48;;;;;;;15.25;62.31;98990.88;4993471;28;20514;-70
2022/06/16 01:48:43;;;;;;;6.25;1.20;;;;;;;15.31;61.86;99001.38;4977707;28;20477;-69
2022/06/16 01:51:28;;;;;;;6.45;1.48;;;;;;;15.43;61.56;98998.41;4993210;28;20057;-71
2022/06/16 01:54:07;;;;;;;1.50;0.90;;;;;;;15.49;61.61;99002.50;4993205;28;20519;-69
2022/06/16 01:56:49;;;;;;;3.75;1.50;;;;;;;15.52;61.08;99007.38;4992906;28;20058;-69
2022/06/16 01:59:26;;;;;;;2.50;1.10;;;;;;;15.50;61.04;99009.72;4993268;28;20412;-69
2022/06/16 02:01:59;;;;;;;3.58;1.20;;;;;;;15.48;61.10;98995.28;4992924;28;20513;-70
2022/06/16 02:04:37;;;;;;;2.28;1.20;;;;;;;15.53;60.77;99008.97;4993158;28;20065;-69
2022/06/16 02:07:12;;;;;;;3.13;1.20;;;;;;;15.61;61.02;99010.69;4992867;28;20054;-70
2022/06/16 02:09:44;;;;;;;4.05;1.30;;;;;;;15.58;60.88;99010.63;4993199;28;20576;-70
2022/06/16 02:12:55;;;;;;;4.93;1.20;;;;;;;15.57;60.41;99015.44;4993099;28;20050;-70
2022/06/16 02:15:11;;;;;;;2.60;1.23;;;;;;;15.48;60.65;99008.50;4992962;28;20057;-70
2022/06/16 02:17:38;;;;;;;3.15;1.35;;;;;;;15.35;60.79;99007.88;4991592;28;20085;-70
2022/06/16 02:20:05;;;;;;;1.52;0.98;;;;;;;15.36;60.88;99012.28;4993396;28;20050;-69
2022/06/16 02:22:32;;;;;;;1.92;1.10;;;;;;;15.33;60.68;99017.81;4993063;28;20142;-70
2022/06/16 02:24:59;;;;;;;6.97;1.60;;;;;;;15.31;61.23;99018.19;4993023;28;20141;-69
2022/06/16 02:27:26;;;;;;;14.65;1.42;;;;;;;15.33;60.72;99015.81;4991559;28;20579;-73
2022/06/16 02:29:53;;;;;;;2.30;1.10;;;;;;;15.42;60.78;99030.41;4993404;28;20062;-68
2022/06/16 02:32:56;;;;;;;2.70;1.48;;;;;;;15.47;60.47;99027.31;4992779;28;20065;-70
2022/06/16 02:35:50;;;;;;;4.18;1.20;;;;;;;15.50;60.39;99025.72;4984183;28;20141;-71
2022/06/16 02:38:55;;;;;;;3.47;1.77;;;;;;;15.50;59.99;99032.16;4992696;28;20053;-68
2022/06/16 02:41:31;;;;;;;1.65;1.02;;;;;;;15.49;59.99;99041.75;4992664;28;20470;-67
2022/06/16 02:44:25;;;;;;;1.67;1.05;;;;;;;15.52;60.11;99041.00;4993485;28;20060;-67
2022/06/16 02:47:44;;;;;;;4.93;1.88;;;;;;;15.68;59.46;99038.00;4992834;28;20436;-68
2022/06/16 02:50:39;;;;;;;3.35;1.20;;;;;;;15.79;59.23;99050.19;4992830;28;20569;-72
2022/06/16 02:54:11;;;;;;;1.83;1.15;;;;;;;15.84;58.79;99041.47;4990734;28;20054;-73
2022/06/16 02:56:41;;;;;;;4.55;1.13;;;;;;;15.96;58.42;99047.63;4953725;28;20050;-72
2022/06/16 02:59:17;;;;;;;2.00;1.08;;;;;;;16.05;58.53;99042.53;4992578;28;20416;-70
2022/06/16 03:01:44;;;;;;;5.45;1.30;;;;;;;16.04;58.43;99040.13;4991150;28;20046;-70
2022/06/16 03:04:14;;;;;;;2.20;0.90;;;;;;;16.12;58.15;99039.03;4992814;28;20459;-69
2022/06/16 03:06:42;;;;;;;3.78;1.10;;;;;;;16.17;58.03;99042.28;4992789;28;20433;-69
2022/06/16 03:09:11;;;;;;;2.80;1.08;;;;;;;16.15;58.29;99047.50;4996182;28;20540;-69
2022/06/16 03:11:39;;;;;;;3.92;1.20;;;;;;;16.19;58.23;99036.31;4996515;28;20050;-69
2022/06/16 03:14:06;;;;;;;4.55;1.13;;;;;;;16.13;57.96;99037.81;4994610;28;20169;-69
2022/06/16 03:16:35;;;;;;;2.55;1.17;;;;;;;16.03;58.27;99044.94;4996381;28;20053;-69
2022/06/16 03:19:03;;;;;;;;;;;;;;;15.91;58.45;99036.75;4996789;28;20049;-70
2022/06/16 03:21:30;;;;;;;4.82;1.00;;;;;;;15.93;58.32;99044.81;4995744;28;20012;-69
2022/06/16 03:23:57;;;;;;;2.63;1.48;;;;;;;15.96;58.80;99044.03;4995881;28;20531;-69
2022/06/16 03:26:24;;;;;;;5.45;1.48;;;;;;;15.99;58.72;99041.25;4995805;28;20050;-70
2022/06/16 03:28:51;;;;;;;1.63;1.10;;;;;;;16.05;58.37;99042.53;4995925;28;20081;-70
2022/06/16 03:31:18;;;;;;;4.20;1.17;;;;;;;16.12;58.47;99045.47;4995853;28;20070;-71
2022/06/16 03:33:45;;;;;;;1.65;1.00;;;;;;;16.12;58.32;99053.88;4995792;28;20063;-70
2022/06/16 03:36:12;;;;;;;2.65;1.08;;;;;;;16.09;58.14;99054.63;4995535;28;20054;-70
2022/06/16 03:41:07;;;;;;;2.42;1.08;;;;;;;16.18;58.63;99046.75;4995396;28;20514;-70
2022/06/16 03:43:34;;;;;;;8.65;1.23;;;;;;;16.39;58.11;99046.19;4996088;28;20056;-69
2022/06/16 03:46:02;;;;;;;2.85;1.27;;;;;;;16.53;57.81;99045.56;4995506;28;20429;-69
2022/06/16 03:48:30;;;;;;;3.13;1.30;;;;;;;16.72;57.50;99039.78;4995350;28;20056;-70
2022/06/16 03:50:57;;;;;;;3.45;1.00;;;;;;;16.91;56.75;99042.38;4995412;28;20572;-70
2022/06/16 03:53:24;;;;;;;2.15;1.00;;;;;;;17.04;56.52;99043.69;4995530;28;20060;-69
2022/06/16 03:55:52;;;;;;;1.90;0.98;;;;;;;17.04;56.19;99050.13;4995365;28;20050;-69
2022/06/16 03:58:18;;;;;;;2.67;0.98;;;;;;;17.05;56.27;99048.91;4995245;28;20046;-69
2022/06/16 04:00:45;;;;;;;2.00;1.15;;;;;;;17.14;56.24;99051.44;4994075;28;20133;-69
2022/06/16 04:06:00;;;;;;;2.45;1.23;;;;;;;17.37;55.60;99057.63;4993717;28;20062;-70
2022/06/16 04:08:27;;;;;;;2.20;1.20;;;;;;;17.44;55.50;99057.75;4995115;28;20505;-67
2022/06/16 04:10:54;;;;;;;3.10;1.17;;;;;;;17.54;55.25;99057.00;4994776;28;20046;-67
2022/06/16 04:13:21;;;;;;;2.42;1.25;;;;;;;17.62;54.91;99064.31;4994901;28;20046;-68
2022/06/16 04:15:51;;;;;;;2.38;1.30;;;;;;;17.70;54.63;99065.94;4995005;28;20161;-68
2022/06/16 04:18:21;;;;;;;7.57;1.27;;;;;;;17.85;54.00;99059.22;4994721;28;20046;-70
2022/06/16 04:20:48;;;;;;;2.88;1.20;;;;;;;17.99;54.01;99062.13;4994911;28;20052;-70
2022/06/16 04:23:26;;;;;;;4.13;1.40;;;;;;;18.06;53.52;99068.59;4994763;28;20142;-75
2022/06/16 04:25:53;;;;;;;3.40;1.13;;;;;;;18.20;53.24;99065.06;4994917;28;20498;-72
2022/06/16 04:28:19;;;;;;;4.50;1.27;;;;;;;18.34;52.98;99061.50;4994532;28;20505;-75
2022/06/16 04:30:46;;;;;;;4.38;1.33;;;;;;;18.48;52.56;99051.13;4994689;28;20137;-72
2022/06/16 04:33:13;;;;;;;1.77;0.93;;;;;;;18.59;52.33;99063.22;4994607;28;20149;-72
2022/06/16 04:35:41;;;;;;;1.98;1.10;;;;;;;18.72;52.22;99056.03;4994863;28;20056;-73
2022/06/16 04:38:08;;;;;;;5.38;1.20;;;;;;;18.91;51.47;99058.50;4994567;28;20054;-73
2022/06/16 04:40:35;;;;;;;2.95;1.77;;;;;;;19.03;51.07;99060.94;4994446;28;20105;-73
2022/06/16 04:43:03;;;;;;;3.42;1.33;;;;;;;19.14;50.78;99055.31;4994194;28;20540;-73
2022/06/16 04:45:30;;;;;;;4.72;1.10;;;;;;;19.25;50.34;99051.31;4994415;28;20448;-73
2022/06/16 04:47:57;;;;;;;4.22;1.30;;;;;;;19.38;50.09;99066.66;4994720;28;20057;-73
2022/06/16 04:50:24;;;;;;;5.85;1.20;;;;;;;19.52;49.88;99072.31;4994006;28;20057;-73
2022/06/16 04:52:51;;;;;;;5.03;1.30;;;;;;;19.62;49.74;99060.19;4994411;28;20128;-74
2022/06/16 04:55:18;;;;;;;4.93;1.25;;;;;;;19.83;49.10;99065.00;4994043;28;20074;-73
2022/06/16 04:57:45;;;;;;;2.72;1.10;;;;;;;20.08;48.44;99067.78;4993949;28;20084;-73
2022/06/16 05:00:15;;;;;;;7.47;1.38;;;;;;;20.35;47.56;99061.28;4993698;28;20536;-70
2022/06/16 05:02:50;;;;;;;3.13;1.10;;;;;;;20.58;47.03;99060.78;4993737;28;20513;-70
2022/06/16 05:05:17;;;;;;;2.58;1.10;;;;;;;20.71;46.65;99070.38;4994113;28;20535;-70
2022/06/16 05:07:44;;;;;;;3.83;1.08;;;;;;;20.78;46.69;99064.72;4993260;28;20058;-70
2022/06/16 05:10:11;;;;;;;2.58;1.27;;;;;;;20.82;46.58;99066.31;4993839;28;20054;-71
2022/06/16 05:12:38;;;;;;;3.22;1.17;;;;;;;20.95;46.41;99063.81;4993651;28;20046;-70
2022/06/16 05:15:06;;;;;;;2.30;1.25;;;;;;;21.11;45.96;99061.31;4992484;28;20062;-70
2022/06/16 05:17:33;;;;;;;1.88;1.00;;;;;;;21.36;45.37;99067.59;4993457;28;20058;-71
2022/06/16 05:20:01;;;;;;;4.85;1.52;;;;;;;21.56;45.21;99068.66;4993374;28;20060;-70
2022/06/16 05:22:28;;;;;;;4.85;1.10;;;;;;;21.56;44.91;99066.59;4993233;28;20133;-69
2022/06/16 05:24:55;;;;;;;3.33;1.60;;;;;;;21.70;44.57;99065.66;4993531;28;20054;-70
2022/06/16 05:27:22;;;;;;;2.30;1.13;;;;;;;21.95;44.07;99071.94;4993257;28;20046;-70
2022/06/16 05:29:49;;;;;;;2.17;1.33;;;;;;;22.13;43.41;99066.91;4993052;28;20054;-70
2022/06/16 05:32:17;;;;;;;2.08;1.30;;;;;;;22.30;42.89;99077.25;4992084;28;20046;-71
2022/06/16 05:34:44;;;;;;;6.50;1.30;;;;;;;22.45;42.56;99069.38;4993417;28;20065;-69
2022/06/16 05:37:12;;;;;;;5.80;1.23;;;;;;;22.53;42.03;99068.88;4993419;28;20144;-69
2022/06/16 05:39:39;;;;;;;7.93;1.02;;;;;;;22.61;41.87;99066.75;4994008;28;20153;-70
2022/06/16 05:42:08;;;;;;;7.13;1.90;;;;;;;22.72;41.62;99071.09;4993189;28;20038;-70
2022/06/16 05:44:36;;;;;;;4.43;1.45;;;;;;;22.82;41.29;99070.13;4993355;28;20574;-69
2022/06/16 05:47:05;;;;;;;3.03;1.40;;;;;;;23.05;41.00;99067.38;4993146;28;20140;-70
2022/06/16 05:49:33;;;;;;;4.72;1.45;;;;;;;23.16;41.19;99072.91;4993235;28;20513;-69
2022/06/16 05:52:01;;;;;;;4.10;1.30;;;;;;;23.27;41.33;99073.59;4993239;28;20054;-74
2022/06/16 05:54:28;;;;;;;6.18;1.38;;;;;;;23.24;41.46;99069.53;4993653;28;20505;-73
2022/06/16 05:56:55;;;;;;;2.85;1.30;;;;;;;23.09;41.86;99068.13;4993218;28;20057;-72
2022/06/16 05:59:22;;;;;;;5.13;1.27;;;;;;;23.38;41.21;99073.41;4993448;28;20509;-72
2022/06/16 06:01:49;;;;;;;1.50;1.00;;;;;;;23.60;41.20;99068.97;4993088;28;20054;-77
2022/06/16 06:04:16;;;;;;;2.92;1.13;;;;;;;23.72;40.78;99062.69;4993755;28;20050;-72
2022/06/16 06:06:44;;;;;;;6.70;1.33;;;;;;;23.88;40.23;99066.44;4993232;28;20054;-74
2022/06/16 06:17:30;;;;;;;2.88;1.20;;;;;;;28.97;30.97;99063.56;4993180;28;20137;-72
2022/06/16 06:20:02;;;;;;;4.38;1.10;;;;;;;28.71;31.20;99064.22;4993041;28;20050;-73
2022/06/16 06:22:29;;;;;;;2.88;1.02;;;;;;;28.41;30.85;99057.09;4992921;28;20509;-79
2022/06/16 06:24:58;;;;;;;2.88;1.15;;;;;;;28.10;30.98;99065.53;4992718;28;20145;-77
2022/06/16 06:27:35;;;;;;;6.32;1.33;;;;;;;27.45;32.39;99069.41;4992849;28;20057;-77
2022/06/16 06:30:07;;;;;;;1.90;1.10;;;;;;;27.04;32.72;99063.75;4992899;28;20505;-71
2022/06/16 06:32:34;;;;;;;6.05;1.20;;;;;;;26.28;33.96;99060.63;4992704;28;20141;-74
2022/06/16 06:35:02;;;;;;;2.33;1.10;;;;;;;25.64;34.18;99054.97;4993014;28;20046;-73
2022/06/16 06:37:29;;;;;;;6.53;1.38;;;;;;;25.39;34.87;99063.34;4993209;28;20097;-72
2022/06/16 06:39:57;;;;;;;4.75;1.40;;;;;;;25.39;34.71;99065.38;4992563;28;20050;-68
2022/06/16 06:42:24;;;;;;;6.07;1.30;;;;;;;25.92;33.47;99057.13;4994422;28;20051;-71
2022/06/16 06:44:51;;;;;;;4.55;0.90;;;;;;;26.99;31.50;99058.63;4996674;28;20051;-69
2022/06/16 06:47:28;;;;;;;6.00;1.38;;;;;;;27.40;30.72;99055.69;4996485;28;20504;-68
2022/06/16 06:49:55;;;;;;;5.88;0.95;;;;;;;28.19;29.98;99056.28;4996560;28;20050;-72
2022/06/16 06:52:23;;;;;;;4.47;1.10;;;;;;;27.67;30.49;99056.00;4996381;28;20132;-71
2022/06/16 06:54:50;;;;;;;3.25;1.17;;;;;;;26.87;31.82;99056.50;4996526;28;20050;-77
2022/06/16 06:57:25;;;;;;;3.55;1.90;;;;;;;30.44;26.58;99050.09;4996146;28;20082;-76
2022/06/16 06:59:53;;;;;;;4.43;1.15;;;;;;;34.81;21.27;99044.13;4997217;28;20046;-77
2022/06/16 07:02:20;;;;;;;18.90;7.88;;;;;;;36.89;19.16;99054.09;4995991;28;20141;-77
2022/06/16 07:04:48;;;;;;;4.70;1.45;;;;;;;38.30;17.77;99048.00;4996396;28;20054;-73
2022/06/16 07:07:20;;;;;;;8.20;1.00;;;;;;;40.85;15.46;99054.13;4995907;28;20172;-73
2022/06/16 07:09:47;;;;;;;4.03;1.13;;;;;;;43.93;13.16;99048.56;4995947;28;20058;-70
2022/06/16 07:12:14;;;;;;;1.55;0.90;;;;;;;45.98;11.20;99049.72;4995812;28;20049;-75
2022/06/16 07:14:44;;;;;;;4.45;1.00;;;;;;;47.49;10.32;99055.97;4996048;28;20054;-75
2022/06/16 07:17:12;;;;;;;6.22;0.98;;;;;;;44.83;11.51;99049.19;4995899;28;20097;-72
2022/06/16 07:19:40;;;;;;;6.90;1.20;;;;;;;45.19;11.21;99052.88;4995868;28;20042;-72
2022/06/16 07:22:07;;;;;;;20.60;12.50;;;;;;;43.66;12.03;99041.28;4995805;28;20050;-72
2022/06/16 07:24:35;;;;;;;5.38;1.05;;;;;;;38.98;15.16;99053.03;4995817;28;20282;-75
2022/06/16 07:27:03;;;;;;;3.53;1.05;;;;;;;34.97;18.33;99052.22;4995675;28;20521;-76
2022/06/16 07:29:30;;;;;;;3.20;0.70;;;;;;;32.13;20.52;99049.28;4995700;28;20196;-73
2022/06/16 07:32:05;;;;;;;7.10;1.10;;;;;;;30.26;22.63;99050.09;4995416;28;20563;-75
2022/06/16 07:34:32;;;;;;;8.98;1.25;;;;;;;29.35;23.94;99034.69;4995806;28;20053;-72
2022/06/16 07:37:00;;;;;;;2.65;0.85;;;;;;;30.05;23.37;99037.47;4995284;28;20064;-72
2022/06/16 07:39:27;;;;;;;2.35;0.80;;;;;;;33.26;19.62;99032.41;4995634;28;20509;-70
2022/06/16 07:41:54;;;;;;;7.00;1.42;;;;;;;32.39;20.72;99036.00;4995186;28;20461;-71
2022/06/16 07:44:21;;;;;;;3.92;1.20;;;;;;;30.42;22.89;99044.03;4993853;28;20077;-70
2022/06/16 07:46:48;;;;;;;5.10;1.25;;;;;;;28.61;25.31;99037.56;4995362;28;20362;-72
2022/06/16 07:49:22;;;;;;;3.63;1.02;;;;;;;27.23;27.22;99043.53;4995372;28;20469;-70
2022/06/16 07:51:50;;;;;;;3.88;1.30;;;;;;;26.91;27.48;99037.25;4995754;28;20053;-71
2022/06/16 07:54:18;;;;;;;4.93;1.08;;;;;;;26.62;27.84;99031.56;4994501;28;20080;-75
2022/06/16 07:57:05;;;;;;;6.20;2.38;;;;;;;25.95;28.43;99035.47;4995163;28;20050;-72
2022/06/16 07:59:32;;;;;;;12.13;1.00;;;;;;;25.32;30.00;99046.44;4995159;28;20417;-71
2022/06/16 08:01:59;;;;;;;12.50;1.52;;;;;;;24.50;32.99;99054.31;4994666;28;20053;-70
2022/06/16 08:04:27;;;;;;;5.13;1.33;;;;;;;23.52;36.04;99073.16;4995148;28;20046;-70
2022/06/16 08:07:00;;;;;;;8.77;1.35;;;;;;;22.79;37.98;99059.63;4995085;28;20065;-71
2022/06/16 08:09:33;;;;;;;6.57;1.70;;;;;;;22.55;39.74;99055.09;4994975;28;20501;-72
2022/06/16 08:12:09;;;;;;;9.88;2.67;;;;;;;24.60;37.60;99044.78;4994727;28;20050;-73
2022/06/16 08:14:44;;;;;;;6.25;1.27;;;;;;;30.46;29.00;99038.94;4994866;28;20070;-75
2022/06/16 08:17:27;;;;;;;9.50;3.00;;;;;;;28.60;32.23;99043.75;4994796;28;20050;-71
2022/06/16 08:19:55;;;;;;;8.25;3.60;;;;;;;26.57;36.11;99050.03;4994742;28;20050;-73
2022/06/16 08:22:23;;;;;;;7.75;2.50;;;;;;;25.16;39.63;99060.59;4994336;28;20047;-72
2022/06/16 08:24:50;;;;;;;2.65;1.60;;;;;;;27.68;36.14;99049.81;4994772;28;20416;-70
2022/06/16 08:27:21;;;;;;;7.07;2.03;;;;;;;35.20;25.98;99038.75;4994698;28;20141;-71
2022/06/16 08:29:49;;;;;;;7.22;1.70;;;;;;;40.38;20.35;99049.19;4995004;28;20061;-74
2022/06/16 08:32:18;;;;;;;2.83;1.58;;;;;;;44.51;16.20;99045.88;4994544;28;20141;-73
2022/06/16 08:34:46;;;;;;;3.47;1.50;;;;;;;46.65;14.61;99059.88;4994843;28;20405;-74
2022/06/16 08:37:13;;;;;;;7.55;1.30;;;;;;;41.21;17.66;99060.56;4994332;28;20066;-71
2022/06/16 08:39:40;;;;;;;4.65;0.85;;;;;;;35.78;21.79;99053.47;4994736;28;20050;-69
2022/06/16 08:42:13;;;;;;;5.57;1.27;;;;;;;32.01;25.35;99058.16;4994083;28;20049;-69
2022/06/16 08:44:49;;;;;;;7.30;1.05;;;;;;;29.33;27.62;99057.25;4994278;28;20073;-71
2022/06/16 08:47:18;;;;;;;5.10;1.10;;;;;;;27.44;29.97;99073.53;4994100;28;20050;-71
2022/06/16 08:49:59;;;;;;;1.70;0.80;;;;;;;26.65;30.71;99065.72;4994190;28;20475;-70
2022/06/16 08:52:47;;;;;;;11.05;1.17;;;;;;;25.43;32.10;99064.06;4994008;28;20050;-70
2022/06/16 08:55:41;;;;;;;1.13;0.80;;;;;;;24.77;32.99;99063.53;4993849;28;20137;-72
2022/06/16 08:58:14;;;;;;;5.28;1.20;;;;;;;29.57;27.01;99056.25;4994084;28;20046;-70
2022/06/16 09:00:54;;;;;;;2.20;1.10;;;;;;;37.52;18.24;99049.44;4993903;28;20050;-70
2022/06/16 09:03:27;;;;;;;1.60;1.20;;;;;;;42.08;14.37;99050.84;4993506;28;20066;-69
2022/06/16 09:05:59;;;;;;;5.57;1.00;;;;;;;43.15;13.38;99049.69;4992895;28;20142;-69
2022/06/16 09:08:48;;;;;;;2.47;1.00;;;;;;;41.03;15.08;99050.44;4993856;28;20054;-69
2022/06/16 09:11:35;;;;;;;2.05;1.25;;;;;;;44.65;11.77;99044.41;4993848;28;20409;-69
2022/06/16 09:17:59;;;;;;;5.05;1.10;;;;;;;49.79;8.18;99053.91;4993586;28;20046;-71
2022/06/16 09:20:46;;;;;;;3.17;1.63;;;;;;;50.39;7.28;99041.06;4974202;28;20057;-74
2022/06/16 09:23:22;;;;;;;7.25;1.35;;;;;;;50.96;7.24;99050.00;4974012;28;20145;-75
2022/06/16 09:26:17;;;;;;;3.75;1.00;;;;;;;52.17;6.79;99042.84;4974177;28;20141;-75
2022/06/16 09:29:01;;;;;;;1.42;1.00;;;;;;;52.92;6.08;99045.94;4973366;28;20422;-71
2022/06/16 09:31:36;;;;;;;2.28;1.10;;;;;;;53.77;5.86;99049.44;4993499;28;20056;-70
2022/06/16 09:34:18;;;;;;;2.90;1.17;;;;;;;53.71;5.35;99040.13;4993463;28;20166;-71
2022/06/16 09:36:52;;;;;;;9.65;0.80;;;;;;;49.59;6.87;99034.47;4993437;28;20108;-70
2022/06/16 09:39:34;;;;;;;2.80;1.05;;;;;;;42.57;10.63;99023.56;4993402;28;20137;-71
2022/06/16 09:45:13;;;;;;;2.40;0.85;;;;;;;35.19;16.13;99023.50;4993434;28;20046;-75
2022/06/16 09:48:03;;;;;;;7.10;1.05;;;;;;;33.52;18.07;99012.41;4993259;28;20065;-71
2022/06/16 09:50:45;;;;;;;2.72;1.00;;;;;;;32.03;19.60;99018.94;4993252;28;20450;-67
2022/06/16 09:53:24;;;;;;;7.53;1.13;;;;;;;30.80;20.78;99002.06;4993185;28;20046;-71
2022/06/16 09:56:20;;;;;;;13.13;1.10;;;;;;;29.54;22.35;99011.34;4992345;28;20050;-66
2022/06/16 09:59:01;;;;;;;10.43;0.93;;;;;;;28.56;23.09;99006.66;4990793;28;20093;-67
2022/06/16 10:01:31;;;;;;;5.80;1.20;;;;;;;27.75;23.57;99017.34;4992950;28;20089;-67
2022/06/16 10:04:04;;;;;;;1.55;1.00;;;;;;;27.35;24.65;99002.78;4993203;28;20525;-67
2022/06/16 10:07:09;;;;;;;4.78;1.00;;;;;;;26.93;25.04;99009.81;4991587;28;20425;-67
2022/06/16 10:09:44;;;;;;;3.47;0.90;;;;;;;26.23;25.44;99007.00;4973802;28;20057;-71
2022/06/16 10:12:30;;;;;;;4.65;1.33;;;;;;;25.88;26.03;99002.25;4973622;28;20053;-67
2022/06/16 10:15:31;;;;;;;1.08;0.73;;;;;;;25.67;26.29;99004.88;4973742;28;20059;-71
2022/06/16 10:17:59;;;;;;;1.45;0.77;;;;;;;25.49;26.93;99002.47;4980200;28;20137;-68
2022/06/16 10:20:28;;;;;;;3.35;0.80;;;;;;;25.48;26.76;98994.34;4997529;28;20081;-67
2022/06/16 10:23:19;;;;;;;4.93;1.30;;;;;;;25.52;26.20;99000.78;4996837;28;20100;-67
2022/06/16 10:25:58;;;;;;;5.40;1.00;;;;;;;25.48;26.41;98989.47;4996992;28;20073;-66
2022/06/16 10:28:38;;;;;;;6.45;0.90;;;;;;;25.55;27.02;98999.91;4996966;28;20137;-66
2022/06/16 10:31:07;;;;;;;3.78;1.13;;;;;;;25.65;26.87;98988.22;4997098;28;20082;-67
2022/06/16 10:33:52;;;;;;;7.35;1.02;;;;;;;25.56;27.22;98979.50;4997018;28;20050;-65
2022/06/16 10:36:23;;;;;;;2.95;0.88;;;;;;;25.23;27.17;98983.59;4996846;28;20054;-65
2022/06/16 10:39:21;;;;;;;3.92;1.40;;;;;;;25.06;27.40;98993.34;4997218;28;20060;-70
2022/06/16 10:42:17;;;;;;;3.15;1.63;;;;;;;24.74;27.92;98994.09;4996362;28;20604;-68
2022/06/16 10:45:10;;;;;;;3.38;1.00;;;;;;;24.43;28.56;98989.06;4996643;28;20468;-69
2022/06/16 10:47:51;;;;;;;10.73;1.17;;;;;;;24.40;28.42;98998.47;4993666;28;20104;-67
2022/06/16 10:50:44;;;;;;;8.95;1.00;;;;;;;24.37;28.25;98988.75;4995266;28;20084;-70
2022/06/16 10:53:29;;;;;;;1.67;0.88;;;;;;;24.49;28.19;98995.84;4995274;28;20537;-68
2022/06/16 10:56:03;;;;;;;8.23;3.13;;;;;;;24.46;28.88;99003.22;4996991;28;20417;-66
2022/06/16 10:58:33;;;;;;;5.00;1.00;;;;;;;24.25;28.68;98997.16;4996395;28;20137;-66
2022/06/16 11:00:59;;;;;;;;;;;;;;;24.18;29.09;98995.25;4996483;28;20571;-69
2022/06/16 11:03:26;;;;;;;8.10;1.00;;;;;;;24.65;29.15;98998.75;4995716;28;20024;-66
2022/06/16 11:05:58;;;;;;;1.33;0.85;;;;;;;24.95;28.46;99002.13;4995951;28;20097;-70
2022/06/16 11:08:35;;;;;;;3.33;1.10;;;;;;;24.85;28.67;98996.69;4995707;28;20084;-68
2022/06/16 11:11:19;;;;;;;5.00;1.35;;;;;;;24.79;28.48;98995.59;4994657;28;20085;-67
2022/06/16 11:13:52;;;;;;;5.95;2.05;;;;;;;24.79;28.48;99001.31;4995929;28;20064;-71
2022/06/16 11:16:30;;;;;;;4.15;1.10;;;;;;;24.82;28.76;98995.53;4995961;28;20073;-66
2022/06/16 11:19:06;;;;;;;2.53;1.10;;;;;;;24.95;28.36;98993.59;4995984;28;20082;-71
2022/06/16 11:21:33;;;;;;;2.03;0.95;;;;;;;25.06;28.66;98984.81;4995923;28;20381;-69
2022/06/16 11:24:04;;;;;;;2.42;0.95;;;;;;;25.03;28.33;98985.69;4995820;28;20056;-66
2022/06/16 11:26:33;;;;;;;6.55;2.65;;;;;;;24.94;28.36;98979.81;4995707;28;20476;-67
2022/06/16 11:29:23;;;;;;;3.00;0.90;;;;;;;24.92;28.38;98985.13;4994871;28;20074;-67
2022/06/16 11:32:06;;;;;;;8.43;1.20;;;;;;;24.83;28.69;98993.47;4995144;28;20054;-66
2022/06/16 11:34:34;;;;;;;3.35;0.90;;;;;;;24.58;28.39;98994.03;4995518;28;20619;-66
2022/06/16 11:37:10;;;;;;;7.15;0.70;;;;;;;24.41;28.24;99000.06;4995303;28;20157;-66
2022/06/16 11:39:44;;;;;;;1.92;0.88;;;;;;;24.23;28.90;98999.63;4995575;28;20521;-66
2022/06/16 11:42:36;;;;;;;1.60;0.80;;;;;;;23.87;29.04;98993.03;4995263;28;20058;-69
2022/06/16 11:45:40;;;;;;;4.90;1.17;;;;;;;23.75;29.36;98993.66;4995153;28;20065;-68
2022/06/16 11:48:24;;;;;;;1.10;0.80;;;;;;;24.05;29.40;98999.19;4995229;28;20133;-66
2022/06/16 11:51:16;;;;;;;1.70;0.85;;;;;;;24.28;29.67;99001.97;4995172;28;20054;-67
2022/06/16 11:54:19;;;;;;;3.38;0.70;;;;;;;24.23;29.32;99000.44;4995241;28;20055;-66
2022/06/16 11:56:53;;;;;;;1.65;0.80;;;;;;;24.04;29.71;98992.69;4994748;28;20398;-72
2022/06/16 11:59:38;;;;;;;10.30;1.00;;;;;;;24.03;29.53;98993.94;4995216;28;20050;-70
2022/06/16 12:02:38;;;;;;;7.55;1.02;;;;;;;24.03;29.35;98990.28;4994664;28;20063;-70
2022/06/16 12:05:17;;;;;;;2.25;1.00;;;;;;;24.08;29.47;98989.78;4995449;28;20059;-70
2022/06/16 12:07:50;;;;;;;1.30;0.80;;;;;;;24.15;29.47;98983.97;4994929;28;20069;-67
2022/06/16 12:10:17;;;;;;;4.03;1.23;;;;;;;24.17;29.21;98987.16;4995013;28;20513;-66
2022/06/16 12:12:49;;;;;;;4.10;1.00;;;;;;;24.28;28.77;98984.91;4994780;28;20054;-72
2022/06/16 12:15:31;;;;;;;1.55;0.88;;;;;;;24.36;28.26;98990.00;4995031;28;20046;-71
2022/06/16 12:18:12;;;;;;;7.53;1.15;;;;;;;24.27;28.47;98986.16;4994849;28;20058;-69
2022/06/16 12:21:09;;;;;;;4.05;1.00;;;;;;;24.21;28.22;98996.41;4994888;28;20466;-68
2022/06/16 12:24:02;;;;;;;7.50;1.00;;;;;;;23.98;28.07;98980.22;4994862;28;20050;-70
2022/06/16 12:26:53;;;;;;;9.30;0.70;;;;;;;23.87;28.10;98984.50;4990120;28;20054;-71
2022/06/16 12:29:31;;;;;;;5.60;0.80;;;;;;;23.58;28.06;98980.56;4994881;28;20046;-68
2022/06/16 12:32:07;;;;;;;3.03;0.60;;;;;;;23.37;28.42;98990.28;4994489;28;20077;-67
2022/06/16 12:34:52;;;;;;;1.75;0.70;;;;;;;23.42;28.31;98981.28;4994207;28;20141;-72